Time;durP1;ratioP1;P1;durP2;ratioP2;P2;SDS_P1;SDS_P2;PMS_P1;PMS_P2;Temp;Humidity;BMP_temperature;BMP_pressure;BME280_temperature;BME280_humidity;BME280_pressure;Samples;Min_cycle;Max_cycle;Signal;HPM_P1;HPM_P2
2021/10/10 11:42:45;;;;;;;3.85;1.67;;;;;;;;;;5225608;23;20109;-69
2021/10/10 11:45:30;;;;;;;3.15;1.30;;;;;;;;;;4963747;28;20367;-69
2021/10/10 11:48:14;;;;;;;1.85;1.30;;;;;;;;;;4964837;28;20466;-69
2021/10/10 11:51:00;;;;;;;3.65;1.55;;;;;;;;;;4963978;28;20552;-69
2021/10/10 11:53:46;;;;;;;6.05;1.30;;;;;;;;;;4953288;29;20121;-69
2021/10/10 11:56:30;;;;;;;3.25;1.20;;;;;;;;;;4959465;28;20026;-69
2021/10/10 11:59:16;;;;;;;4.50;1.60;;;;;;;;;;4966248;28;20042;-70
2021/10/10 12:02:00;;;;;;;3.58;1.48;;;;;;;;;;4959041;28;20077;-70
2021/10/10 12:04:48;;;;;;;2.17;1.10;;;;;;;;;;4954144;28;20073;-70
2021/10/10 12:07:32;;;;;;;4.68;1.50;;;;;;;;;;4960099;28;20062;-69
2021/10/10 12:10:18;;;;;;;4.22;1.50;;;;;;;;;;4951819;29;20046;-69
2021/10/10 12:13:04;;;;;;;4.45;1.67;;;;;;;;;;4954322;28;20058;-69
2021/10/10 12:16:02;;;;;;;4.93;1.55;;;;;;;;;;4956394;28;20176;-70
2021/10/10 12:18:46;;;;;;;4.88;1.33;;;;;;;;;;4956638;28;20125;-71
2021/10/10 12:21:31;;;;;;;4.47;1.40;;;;;;;;;;4962701;28;20070;-70
2021/10/10 12:24:18;;;;;;;5.85;1.63;;;;;;;;;;4959465;28;20042;-70
2021/10/10 12:27:03;;;;;;;3.72;1.45;;;;;;;;;;4957913;28;20066;-70
2021/10/10 12:29:48;;;;;;;4.47;1.42;;;;;;;;;;4967208;28;20033;-70
2021/10/10 12:32:32;;;;;;;4.22;1.70;;;;;;;;;;4969266;28;20045;-70
2021/10/10 12:35:17;;;;;;;6.60;1.45;;;;;;;;;;4952937;28;20057;-70
2021/10/10 12:38:02;;;;;;;3.65;1.30;;;;;;;;;;4952871;29;20042;-70
2021/10/10 12:40:49;;;;;;;2.28;1.13;;;;;;;;;;4953976;28;20050;-69
2021/10/10 12:43:40;;;;;;;3.35;1.38;;;;;;;;;;4953049;28;20139;-70
2021/10/10 12:46:25;;;;;;;3.90;1.50;;;;;;;;;;4951207;28;20042;-70
2021/10/10 12:49:10;;;;;;;2.92;1.35;;;;;;;;;;4951378;29;20487;-70
2021/10/10 12:51:55;;;;;;;3.05;1.20;;;;;;;;;;4945823;28;20105;-69
2021/10/10 12:54:40;;;;;;;4.30;1.50;;;;;;;;;;4966414;28;20465;-69
2021/10/10 12:57:24;;;;;;;3.90;1.30;;;;;;;;;;4970306;28;20077;-70
2021/10/10 13:00:16;;;;;;;3.70;1.50;;;;;;;;;;4970652;28;20037;-70
2021/10/10 13:03:01;;;;;;;3.70;1.30;;;;;;;;;;4950863;29;20518;-70
2021/10/10 13:05:45;;;;;;;4.07;1.42;;;;;;;;;;4952573;28;20138;-70
2021/10/10 13:08:30;;;;;;;3.85;1.65;;;;;;;;;;4951900;29;20046;-70
2021/10/10 13:11:15;;;;;;;5.00;1.35;;;;;;;;;;4950522;28;20904;-70
2021/10/10 13:13:59;;;;;;;4.00;1.35;;;;;;;;;;4951738;29;20129;-70
2021/10/10 13:16:44;;;;;;;3.85;1.45;;;;;;;;;;4958626;28;20136;-70
2021/10/10 13:19:29;;;;;;;4.32;1.60;;;;;;;;;;4951906;29;20770;-70
2021/10/10 13:22:13;;;;;;;3.13;1.50;;;;;;;;;;4951440;28;20096;-70
2021/10/10 13:24:58;;;;;;;2.83;1.27;;;;;;;;;;4950512;29;20106;-70
2021/10/10 13:27:43;;;;;;;4.35;1.40;;;;;;;;;;4961862;28;20037;-70
2021/10/10 13:30:27;;;;;;;2.97;1.38;;;;;;;;;;4954813;28;20130;-70
2021/10/10 13:33:12;;;;;;;4.40;1.38;;;;;;;;;;4951552;29;20046;-70
2021/10/10 13:35:59;;;;;;;4.97;1.40;;;;;;;;;;4964606;28;20066;-70
2021/10/10 13:38:43;;;;;;;3.55;1.60;;;;;;;;;;4961211;28;20731;-70
2021/10/10 13:41:28;;;;;;;4.03;1.30;;;;;;;;;;4958508;28;20402;-70
2021/10/10 13:44:12;;;;;;;3.13;1.50;;;;;;;;;;4970545;28;20465;-70
2021/10/10 13:46:57;;;;;;;3.67;1.50;;;;;;;;;;4969764;28;20426;-70
2021/10/10 13:49:48;;;;;;;6.00;1.65;;;;;;;;;;4966051;28;20061;-70
2021/10/10 13:52:34;;;;;;;2.45;1.30;;;;;;;;;;4951018;28;20046;-70
2021/10/10 13:55:19;;;;;;;3.38;1.50;;;;;;;;;;4951291;29;20046;-70
2021/10/10 13:58:04;;;;;;;2.47;1.10;;;;;;;;;;4962480;28;20129;-69
2021/10/10 14:00:49;;;;;;;3.45;1.58;;;;;;;;;;4968361;28;20132;-70
2021/10/10 14:03:34;;;;;;;3.33;1.35;;;;;;;;;;4970303;28;20046;-69
2021/10/10 14:06:18;;;;;;;5.28;1.35;;;;;;;;;;4969416;28;20129;-70
2021/10/10 14:09:03;;;;;;;2.42;1.25;;;;;;;;;;4965977;28;20062;-70
2021/10/10 14:11:48;;;;;;;3.88;1.40;;;;;;;;;;4957556;28;20105;-70
2021/10/10 14:14:32;;;;;;;3.65;1.27;;;;;;;;;;4986866;28;20046;-70
2021/10/10 14:17:17;;;;;;;4.93;1.13;;;;;;;;;;4971797;28;20042;-70
2021/10/10 14:20:01;;;;;;;2.85;1.40;;;;;;;;;;4965340;28;20046;-70
2021/10/10 14:22:46;;;;;;;3.55;1.50;;;;;;;;;;4958275;28;20066;-70
2021/10/10 14:25:31;;;;;;;4.57;1.52;;;;;;;;;;4974034;28;20062;-70
2021/10/10 14:28:16;;;;;;;3.90;1.40;;;;;;;;;;4962308;28;20039;-70
2021/10/10 14:31:00;;;;;;;3.25;1.30;;;;;;;;;;4963372;28;20042;-70
2021/10/10 14:33:45;;;;;;;3.10;1.45;;;;;;;;;;4955153;29;20101;-70
2021/10/10 14:36:29;;;;;;;2.40;1.17;;;;;;;;;;4954790;28;20122;-71
2021/10/10 14:39:17;;;;;;;3.15;1.40;;;;;;;;;;4955495;28;20098;-70
2021/10/10 14:42:14;;;;;;;5.47;1.30;;;;;;;;;;4964991;28;20049;-70
2021/10/10 14:48:13;;;;;;;2.55;1.30;;;;;;;;;;4957383;28;20038;-70
2021/10/10 14:50:58;;;;;;;5.40;1.60;;;;;;;;;;4961838;28;20488;-70
2021/10/10 14:53:43;;;;;;;5.30;1.20;;;;;;;;;;4966657;28;20118;-71
2021/10/10 14:56:28;;;;;;;2.72;1.20;;;;;;;;;;4972494;28;20704;-70
2021/10/10 14:59:12;;;;;;;3.88;1.33;;;;;;;;;;4969050;28;20084;-71
2021/10/10 15:01:57;;;;;;;2.97;1.30;;;;;;;;;;4961084;28;20058;-70
2021/10/10 15:04:41;;;;;;;2.33;1.20;;;;;;;;;;4959366;28;20065;-70
2021/10/10 15:07:26;;;;;;;2.15;1.20;;;;;;;;;;4963013;28;20038;-71
2021/10/10 15:10:11;;;;;;;2.83;1.48;;;;;;;;;;4971609;28;20116;-70
2021/10/10 15:12:55;;;;;;;3.80;1.20;;;;;;;;;;4974631;28;20050;-70
2021/10/10 15:15:41;;;;;;;3.63;1.30;;;;;;;;;;4954654;28;20037;-70
2021/10/10 15:18:26;;;;;;;3.08;1.40;;;;;;;;;;4970210;28;20729;-70
2021/10/10 15:21:10;;;;;;;3.78;1.42;;;;;;;;;;4958653;28;20125;-70
2021/10/10 15:23:55;;;;;;;3.42;1.45;;;;;;;;;;4962365;28;20048;-71
2021/10/10 15:26:39;;;;;;;3.65;1.30;;;;;;;;;;4955774;28;20046;-70
2021/10/10 15:29:24;;;;;;;3.00;1.30;;;;;;;;;;4953701;29;20078;-70
2021/10/10 15:32:09;;;;;;;2.88;1.20;;;;;;;;;;4939693;28;20041;-70
2021/10/10 15:34:54;;;;;;;3.45;1.25;;;;;;;;;;4970699;28;20134;-70
2021/10/10 15:37:38;;;;;;;2.25;1.10;;;;;;;;;;4964243;28;20865;-70
2021/10/10 15:40:24;;;;;;;3.88;1.30;;;;;;;;;;4951145;28;20109;-70
2021/10/10 15:43:09;;;;;;;2.33;1.10;;;;;;;;;;4963526;28;20054;-70
2021/10/10 15:45:53;;;;;;;3.60;1.30;;;;;;;;;;4968418;28;20069;-70
2021/10/10 15:48:38;;;;;;;1.88;1.10;;;;;;;;;;4958869;28;20523;-70
2021/10/10 15:51:22;;;;;;;3.55;1.50;;;;;;;;;;4965745;28;20059;-70
2021/10/10 15:54:07;;;;;;;2.67;1.08;;;;;;;;;;4938642;29;20046;-70
2021/10/10 15:56:52;;;;;;;3.03;1.20;;;;;;;;;;4956799;28;20090;-70
2021/10/10 15:59:36;;;;;;;4.18;1.20;;;;;;;;;;4953415;28;20641;-70
2021/10/10 16:02:21;;;;;;;3.80;1.20;;;;;;;;;;4962442;28;20070;-70
2021/10/10 16:05:06;;;;;;;4.80;1.30;;;;;;;;;;4952179;29;20086;-72
2021/10/10 16:07:51;;;;;;;2.63;1.20;;;;;;;;;;4956505;28;20090;-71
2021/10/10 16:10:35;;;;;;;3.08;1.30;;;;;;;;;;4953486;28;20401;-70
2021/10/10 16:13:20;;;;;;;3.85;1.33;;;;;;;;;;4960189;28;20790;-70
2021/10/10 16:16:04;;;;;;;2.33;1.48;;;;;;;;;;4960013;28;20078;-70
2021/10/10 16:18:49;;;;;;;4.30;1.60;;;;;;;;;;4958271;28;20810;-70
2021/10/10 16:21:35;;;;;;;3.92;1.63;;;;;;;;;;4963983;28;20037;-70
2021/10/10 16:24:20;;;;;;;4.78;1.48;;;;;;;;;;4962838;28;20058;-70
2021/10/10 16:27:05;;;;;;;3.67;1.70;;;;;;;;;;4961347;28;20122;-70
2021/10/10 16:29:50;;;;;;;5.30;2.03;;;;;;;;;;4961337;28;20151;-70
2021/10/10 16:32:36;;;;;;;6.10;2.45;;;;;;;;;;4961120;28;20336;-70
2021/10/10 16:43:36;;;;;;;6.05;2.35;;;;;;;;;;4951585;29;20086;-71
2021/10/10 16:46:21;;;;;;;4.25;2.17;;;;;;;;;;4964492;28;20197;-71
2021/10/10 16:49:06;;;;;;;3.67;2.30;;;;;;;;;;4951725;28;20041;-68
2021/10/10 16:51:51;;;;;;;6.85;2.90;;;;;;;;;;4958934;28;20074;-69
2021/10/10 16:54:36;;;;;;;3.60;2.15;;;;;;;;;;4957842;28;20126;-69
2021/10/10 16:57:20;;;;;;;3.53;1.83;;;;;;;;;;4944524;28;20046;-70
2021/10/10 17:00:05;;;;;;;6.22;2.08;;;;;;;;;;4962491;28;20485;-69
2021/10/10 17:02:50;;;;;;;6.40;2.10;;;;;;;;;;4964619;28;21616;-69
2021/10/10 17:05:34;;;;;;;5.30;2.13;;;;;;;;;;4952502;28;20058;-69
2021/10/10 17:08:19;;;;;;;5.60;2.20;;;;;;;;;;4955660;28;20109;-69
2021/10/10 17:11:03;;;;;;;5.80;2.08;;;;;;;;;;4954985;28;20523;-69
2021/10/10 17:13:48;;;;;;;3.72;2.28;;;;;;;;;;4943585;28;20050;-69
2021/10/10 17:16:32;;;;;;;4.47;1.92;;;;;;;;;;4949612;28;20046;-69
2021/10/10 17:19:18;;;;;;;5.95;2.63;;;;;;;;;;4948079;28;20670;-69
2021/10/10 17:22:03;;;;;;;4.03;2.10;;;;;;;;;;4952448;28;20577;-69
2021/10/10 17:24:52;;;;;;;4.80;2.38;;;;;;;;;;4953949;28;20073;-69
2021/10/10 17:27:37;;;;;;;5.65;2.20;;;;;;;;;;4956087;28;20407;-69
2021/10/10 17:30:22;;;;;;;4.65;2.20;;;;;;;;;;4947344;28;20283;-69
2021/10/10 17:33:07;;;;;;;6.35;2.45;;;;;;;;;;4956381;28;20596;-69
2021/10/10 17:35:52;;;;;;;5.90;2.60;;;;;;;;;;4951544;28;20042;-69
2021/10/10 17:38:36;;;;;;;4.72;2.47;;;;;;;;;;4955565;28;20062;-69
2021/10/10 17:41:21;;;;;;;5.90;2.72;;;;;;;;;;4960068;28;20041;-69
2021/10/10 17:44:06;;;;;;;9.20;2.75;;;;;;;;;;4957746;28;20049;-69
2021/10/10 17:46:50;;;;;;;5.07;2.50;;;;;;;;;;4954637;28;20045;-68
2021/10/10 17:49:35;;;;;;;6.35;2.60;;;;;;;;;;4951597;28;20176;-71
2021/10/10 17:52:20;;;;;;;4.82;2.35;;;;;;;;;;4947740;28;20042;-70
2021/10/10 17:55:04;;;;;;;4.97;2.90;;;;;;;;;;4956871;28;20141;-69
2021/10/10 17:57:51;;;;;;;5.15;2.65;;;;;;;;;;4967027;28;20034;-69
2021/10/10 18:12:33;;;;;;;4.65;2.50;;;;;;;;;;4960031;28;20054;-71
2021/10/10 18:15:19;;;;;;;4.72;2.50;;;;;;;;;;4942887;28;20390;-70
2021/10/10 18:18:04;;;;;;;5.47;3.25;;;;;;;;;;4956257;28;20054;-70
2021/10/10 18:20:49;;;;;;;6.30;3.10;;;;;;;;;;4952741;28;20043;-70
2021/10/10 18:23:33;;;;;;;7.65;3.05;;;;;;;;;;4950937;28;20102;-71
2021/10/10 18:26:18;;;;;;;7.85;3.15;;;;;;;;;;4959356;28;20057;-70
2021/10/10 18:29:02;;;;;;;7.35;3.13;;;;;;;;;;4959656;28;20082;-70
2021/10/10 18:31:47;;;;;;;6.40;3.40;;;;;;;;;;4957085;28;20411;-71
2021/10/10 18:34:32;;;;;;;7.95;3.55;;;;;;;;;;4959723;28;20034;-71
2021/10/10 18:37:16;;;;;;;5.90;3.58;;;;;;;;;;4981159;28;20509;-70
2021/10/10 18:40:01;;;;;;;5.53;3.47;;;;;;;;;;4941397;28;20119;-71
2021/10/10 18:42:47;;;;;;;7.22;3.80;;;;;;;;;;4963426;28;20054;-70
2021/10/10 18:45:32;;;;;;;6.80;3.42;;;;;;;;;;4963365;28;20140;-70
2021/10/10 18:48:16;;;;;;;5.80;3.58;;;;;;;;;;4955879;28;20092;-70
2021/10/10 18:51:01;;;;;;;5.50;3.80;;;;;;;;;;4968378;28;20073;-71
2021/10/10 18:53:46;;;;;;;6.93;3.90;;;;;;;;;;4960749;28;20532;-69
2021/10/10 18:56:31;;;;;;;7.80;3.55;;;;;;;;;;4959758;28;20082;-69
2021/10/10 18:59:15;;;;;;;6.65;3.78;;;;;;;;;;4958257;28;20042;-70
2021/10/10 19:02:00;;;;;;;7.32;4.20;;;;;;;;;;4960918;28;20158;-69
2021/10/10 19:04:44;;;;;;;9.35;4.32;;;;;;;;;;4962712;28;20062;-70
2021/10/10 19:07:29;;;;;;;6.43;4.03;;;;;;;;;;4972923;28;20042;-70
2021/10/10 19:10:14;;;;;;;7.93;4.50;;;;;;;;;;4971880;28;20498;-70
2021/10/10 19:13:02;;;;;;;9.13;5.03;;;;;;;;;;4972104;28;20118;-69
2021/10/10 19:15:46;;;;;;;7.50;4.40;;;;;;;;;;4961548;28;20042;-69
2021/10/10 19:18:31;;;;;;;8.57;4.97;;;;;;;;;;4968568;28;20501;-69
2021/10/10 19:21:16;;;;;;;7.20;4.90;;;;;;;;;;4953906;28;20057;-70
2021/10/10 19:24:00;;;;;;;15.35;7.88;;;;;;;;;;4945380;28;20049;-70
2021/10/10 19:26:45;;;;;;;11.75;6.43;;;;;;;;;;4969001;28;20100;-69
2021/10/10 19:29:30;;;;;;;9.65;6.03;;;;;;;;;;4950454;29;20037;-69
2021/10/10 19:32:15;;;;;;;9.15;6.10;;;;;;;;;;4966107;28;20049;-69
2021/10/10 19:34:59;;;;;;;8.45;5.70;;;;;;;;;;4959718;28;20042;-69
2021/10/10 19:37:44;;;;;;;8.75;6.43;;;;;;;;;;4958142;28;20097;-69
2021/10/10 19:40:28;;;;;;;8.30;5.68;;;;;;;;;;4969371;28;20485;-69
2021/10/10 19:43:13;;;;;;;8.38;4.88;;;;;;;;;;4953655;29;20050;-69
2021/10/10 19:45:58;;;;;;;8.95;5.22;;;;;;;;;;4948574;28;20089;-69
2021/10/10 19:48:43;;;;;;;8.18;4.85;;;;;;;;;;4939415;29;20458;-68
2021/10/10 19:51:27;;;;;;;8.18;5.30;;;;;;;;;;4954495;28;20170;-68
2021/10/10 19:54:12;;;;;;;10.25;5.57;;;;;;;;;;4953687;28;20566;-68
2021/10/10 19:56:56;;;;;;;7.45;5.22;;;;;;;;;;4954402;28;20095;-70
2021/10/10 19:59:41;;;;;;;8.70;5.47;;;;;;;;;;4971356;28;20041;-70
2021/10/10 20:02:26;;;;;;;8.55;5.40;;;;;;;;;;4961216;28;20050;-69
2021/10/10 20:05:10;;;;;;;10.18;5.68;;;;;;;;;;4953843;28;20101;-68
2021/10/10 20:07:55;;;;;;;7.15;4.85;;;;;;;;;;4957053;28;20459;-69
2021/10/10 20:10:40;;;;;;;7.97;5.20;;;;;;;;;;4952765;28;20109;-68
2021/10/10 20:13:24;;;;;;;8.70;5.63;;;;;;;;;;4957208;28;20042;-69
2021/10/10 20:16:10;;;;;;;8.75;5.10;;;;;;;;;;4963196;28;20045;-67
2021/10/10 20:18:56;;;;;;;8.20;5.20;;;;;;;;;;4955899;28;20037;-69
2021/10/10 20:21:40;;;;;;;9.80;5.45;;;;;;;;;;4955356;28;20030;-69
2021/10/10 20:24:25;;;;;;;9.98;5.13;;;;;;;;;;4953839;28;20054;-69
2021/10/10 20:27:10;;;;;;;8.20;5.20;;;;;;;;;;4952400;28;20064;-68
2021/10/10 20:29:54;;;;;;;8.90;5.38;;;;;;;;;;4966371;28;20358;-69
2021/10/10 20:32:39;;;;;;;10.00;5.63;;;;;;;;;;4971624;28;20117;-69
2021/10/10 20:35:24;;;;;;;10.93;5.32;;;;;;;;;;4966771;28;20089;-69
2021/10/10 20:38:09;;;;;;;8.75;5.55;;;;;;;;;;4964808;28;20395;-69
2021/10/10 20:40:54;;;;;;;11.07;5.88;;;;;;;;;;4964917;28;20042;-69
2021/10/10 20:43:39;;;;;;;9.95;5.68;;;;;;;;;;4968023;28;20042;-69
2021/10/10 20:46:23;;;;;;;10.88;5.90;;;;;;;;;;4952951;29;20058;-68
2021/10/10 20:49:09;;;;;;;10.23;5.55;;;;;;;;;;4965456;28;20037;-69
2021/10/10 20:51:54;;;;;;;11.90;5.93;;;;;;;;;;4961616;28;20096;-68
2021/10/10 20:54:38;;;;;;;14.27;6.10;;;;;;;;;;4966483;28;20117;-69
2021/10/10 20:57:23;;;;;;;9.63;6.00;;;;;;;;;;4969489;28;20042;-69
2021/10/10 21:00:08;;;;;;;8.93;6.03;;;;;;;;;;4970183;28;20042;-68
2021/10/10 21:02:53;;;;;;;9.95;6.32;;;;;;;;;;4971892;28;20045;-69
2021/10/10 21:05:38;;;;;;;10.13;6.22;;;;;;;;;;4942303;28;20403;-69
2021/10/10 21:08:22;;;;;;;9.35;5.53;;;;;;;;;;4952085;28;20038;-69
2021/10/10 21:11:07;;;;;;;10.48;6.20;;;;;;;;;;4955671;28;20038;-69
2021/10/10 21:13:52;;;;;;;10.77;5.78;;;;;;;;;;4961733;28;20045;-68
2021/10/10 21:16:36;;;;;;;11.05;5.78;;;;;;;;;;4963809;28;20025;-69
2021/10/10 21:19:20;;;;;;;9.60;5.60;;;;;;;;;;4971819;28;20505;-68
2021/10/10 21:22:05;;;;;;;8.70;5.53;;;;;;;;;;4966066;28;20508;-68
2021/10/10 21:24:49;;;;;;;7.88;5.88;;;;;;;;;;4956184;28;20109;-70
2021/10/10 21:27:36;;;;;;;9.93;6.10;;;;;;;;;;4965893;28;20490;-69
2021/10/10 21:36:09;;;;;;;8.50;5.40;;;;;;;;;;4968279;28;20121;-70
2021/10/10 21:38:54;;;;;;;8.63;5.30;;;;;;;;;;4967830;28;20120;-68
2021/10/10 21:41:38;;;;;;;8.50;5.22;;;;;;;;;;4963428;28;20049;-68
2021/10/10 21:44:23;;;;;;;9.38;5.85;;;;;;;;;;4962849;28;20050;-68
2021/10/10 21:47:08;;;;;;;10.45;5.40;;;;;;;;;;4958296;28;20174;-69
2021/10/10 21:49:53;;;;;;;10.07;5.65;;;;;;;;;;4949612;28;20123;-68
2021/10/10 21:52:40;;;;;;;9.20;4.90;;;;;;;;;;4959137;28;20042;-69
2021/10/10 21:55:25;;;;;;;8.45;5.22;;;;;;;;;;4941298;28;20065;-70
2021/10/10 21:58:10;;;;;;;8.80;4.82;;;;;;;;;;4965267;28;20118;-69
2021/10/10 22:00:55;;;;;;;10.27;5.75;;;;;;;;;;4961199;28;20033;-69
2021/10/10 22:03:40;;;;;;;10.88;5.70;;;;;;;;;;4957394;28;20050;-69
2021/10/10 22:06:25;;;;;;;8.27;5.25;;;;;;;;;;4963196;28;20084;-69
2021/10/10 22:09:10;;;;;;;9.07;5.15;;;;;;;;;;4967459;28;20081;-70
2021/10/10 22:11:55;;;;;;;8.30;4.93;;;;;;;;;;4958878;28;20094;-69
2021/10/10 22:14:40;;;;;;;7.63;5.20;;;;;;;;;;4960692;28;20054;-69
2021/10/10 22:17:24;;;;;;;12.27;5.28;;;;;;;;;;4969978;28;20395;-70
2021/10/10 22:20:09;;;;;;;8.52;5.13;;;;;;;;;;4967855;28;20049;-70
2021/10/10 22:22:56;;;;;;;10.70;5.20;;;;;;;;;;4969897;28;20101;-71
2021/10/10 22:25:43;;;;;;;7.85;5.40;;;;;;;;;;4953846;28;20278;-70
2021/10/10 22:31:16;;;;;;;9.88;5.30;;;;;;;;;;4954075;28;20053;-71
2021/10/10 22:34:01;;;;;;;11.50;5.43;;;;;;;;;;4973153;28;20034;-70
2021/10/10 22:36:45;;;;;;;7.25;4.75;;;;;;;;;;4970111;28;20157;-70
2021/10/10 22:39:30;;;;;;;9.23;5.07;;;;;;;;;;4968997;28;20042;-70
2021/10/10 22:42:14;;;;;;;8.00;4.80;;;;;;;;;;4960181;28;20046;-70
2021/10/10 22:44:59;;;;;;;7.80;4.65;;;;;;;;;;4944791;28;20054;-70
2021/10/10 22:47:44;;;;;;;9.30;4.97;;;;;;;;;;4964096;28;20498;-70
2021/10/10 22:50:29;;;;;;;8.93;4.72;;;;;;;;;;4966028;28;20089;-70
2021/10/10 22:53:13;;;;;;;9.40;4.80;;;;;;;;;;4969338;28;20037;-70
2021/10/10 22:55:58;;;;;;;9.02;4.57;;;;;;;;;;4964850;28;20070;-70
2021/10/10 22:58:42;;;;;;;7.50;4.30;;;;;;;;;;4959050;28;20063;-70
2021/10/10 23:01:27;;;;;;;9.95;5.00;;;;;;;;;;4973414;28;20537;-70
2021/10/10 23:04:11;;;;;;;6.90;4.68;;;;;;;;;;4975064;28;20041;-70
2021/10/10 23:06:56;;;;;;;7.05;4.45;;;;;;;;;;4972950;28;20073;-70
2021/10/10 23:09:40;;;;;;;6.93;4.38;;;;;;;;;;4966925;28;20062;-70
2021/10/10 23:12:25;;;;;;;6.97;4.15;;;;;;;;;;4962518;28;20085;-69
2021/10/10 23:15:10;;;;;;;8.98;4.40;;;;;;;;;;4957124;28;20399;-69
2021/10/10 23:17:54;;;;;;;8.95;4.47;;;;;;;;;;4975648;28;20046;-69
2021/10/10 23:20:39;;;;;;;7.32;4.22;;;;;;;;;;4971022;28;20041;-69
2021/10/10 23:23:23;;;;;;;7.93;4.93;;;;;;;;;;4973579;28;20119;-69
2021/10/10 23:26:08;;;;;;;8.18;4.65;;;;;;;;;;4972142;28;20049;-69
2021/10/10 23:28:53;;;;;;;11.65;5.10;;;;;;;;;;4961076;28;20062;-69
2021/10/10 23:31:37;;;;;;;10.23;5.00;;;;;;;;;;4957898;28;20106;-70
2021/10/10 23:34:22;;;;;;;10.18;5.00;;;;;;;;;;4962151;28;20042;-70
2021/10/10 23:37:07;;;;;;;9.80;5.15;;;;;;;;;;4954028;29;20398;-72
2021/10/10 23:39:52;;;;;;;11.30;5.55;;;;;;;;;;4961832;28;20045;-70
2021/10/10 23:42:37;;;;;;;7.97;4.43;;;;;;;;;;4973995;28;20093;-69
2021/10/10 23:45:22;;;;;;;8.90;5.30;;;;;;;;;;4965666;28;20101;-69
2021/10/10 23:48:06;;;;;;;10.60;5.38;;;;;;;;;;4963206;28;20045;-69
2021/10/10 23:50:51;;;;;;;10.23;4.85;;;;;;;;;;4961165;28;20049;-69
2021/10/10 23:53:36;;;;;;;8.00;4.75;;;;;;;;;;4970723;28;20045;-69
2021/10/10 23:56:20;;;;;;;10.73;5.63;;;;;;;;;;4972924;28;20097;-70
2021/10/10 23:59:05;;;;;;;9.02;5.18;;;;;;;;;;4957656;28;20550;-69
